createdAt,value
2019-05-01T00:00:46.468Z,12.70
2019-05-01T00:03:32.225Z,12.60
2019-05-01T00:06:02.569Z,12.60
2019-05-01T00:08:31.342Z,12.50
2019-05-01T00:11:00.341Z,12.40
2019-05-01T00:13:29.236Z,12.40
2019-05-01T00:15:58.104Z,12.30
2019-05-01T00:18:26.967Z,12.30
2019-05-01T00:20:55.529Z,12.30
2019-05-01T00:23:24.369Z,12.30
2019-05-01T00:25:53.226Z,12.30
2019-05-01T00:28:22.171Z,12.30
2019-05-01T00:30:51.091Z,12.30
2019-05-01T00:33:19.851Z,12.30
2019-05-01T00:35:48.681Z,12.30
2019-05-01T00:38:17.357Z,12.30
2019-05-01T00:40:46.192Z,12.30
2019-05-01T00:43:14.765Z,12.30
2019-05-01T00:45:44.160Z,12.40
2019-05-01T00:48:12.844Z,12.40
2019-05-01T00:50:41.569Z,12.30
2019-05-01T00:53:10.404Z,12.20
2019-05-01T00:55:57.036Z,12.20
2019-05-01T00:58:42.767Z,12.20
2019-05-01T01:01:31.600Z,12.20
2019-05-01T01:04:00.602Z,12.10
2019-05-01T01:06:29.256Z,12.10
2019-05-01T01:08:58.218Z,12.10
2019-05-01T01:11:27.123Z,12.00
2019-05-01T01:13:56.005Z,12.10
2019-05-01T01:16:25.015Z,12.00
2019-05-01T01:18:53.923Z,12.00
2019-05-01T01:21:22.658Z,12.00
2019-05-01T01:23:51.600Z,12.00
2019-05-01T01:26:20.466Z,12.00
2019-05-01T01:28:49.455Z,11.90
2019-05-01T01:31:18.286Z,11.90
2019-05-01T01:33:47.150Z,11.90
2019-05-01T01:36:15.737Z,11.80
2019-05-01T01:38:44.616Z,11.80
2019-05-01T01:41:13.421Z,11.70
2019-05-01T01:43:43.957Z,11.60
2019-05-01T01:46:20.504Z,11.60
2019-05-01T01:48:49.362Z,11.60
2019-05-01T01:51:18.581Z,11.60
2019-05-01T01:53:47.647Z,11.60
2019-05-01T01:56:17.263Z,11.60
2019-05-01T01:58:46.823Z,11.40
2019-05-01T02:01:17.386Z,11.40
2019-05-01T02:03:59.690Z,11.40
2019-05-01T02:06:28.502Z,11.50
2019-05-01T02:08:57.552Z,11.40
2019-05-01T02:11:27.074Z,11.40
2019-05-01T02:13:56.852Z,11.40
2019-05-01T02:16:25.967Z,11.30
2019-05-01T02:18:54.688Z,11.20
2019-05-01T02:21:23.542Z,11.20
2019-05-01T02:23:52.334Z,11.20
2019-05-01T02:26:23.125Z,11.20
2019-05-01T02:28:56.673Z,11.20
2019-05-01T02:31:29.656Z,11.10
2019-05-01T02:34:00.063Z,11.10
2019-05-01T02:36:29.975Z,11.10
2019-05-01T02:38:59.786Z,11.00
2019-05-01T02:41:31.553Z,11.00
2019-05-01T02:44:03.404Z,10.90
2019-05-01T02:46:35.323Z,10.90
2019-05-01T02:49:12.741Z,10.90
2019-05-01T02:51:43.875Z,10.90
2019-05-01T02:54:14.668Z,10.80
2019-05-01T02:56:55.865Z,10.80
2019-05-01T02:59:26.708Z,10.70
2019-05-01T03:01:55.864Z,10.70
2019-05-01T03:04:47.115Z,10.70
2019-05-01T03:07:17.678Z,10.70
2019-05-01T03:09:47.356Z,10.70
2019-05-01T03:12:19.172Z,10.70
2019-05-01T03:14:50.302Z,10.70
2019-05-01T03:17:24.165Z,10.70
2019-05-01T03:19:58.024Z,10.60
2019-05-01T03:22:28.673Z,10.60
2019-05-01T03:24:57.623Z,10.60
2019-05-01T03:27:26.594Z,10.60
2019-05-01T03:29:56.027Z,10.60
2019-05-01T03:32:25.227Z,10.60
2019-05-01T03:34:54.532Z,10.50
2019-05-01T03:37:23.509Z,10.50
2019-05-01T03:39:53.196Z,10.50
2019-05-01T03:42:22.540Z,10.50
2019-05-01T03:44:51.392Z,10.50
2019-05-01T03:47:20.154Z,10.50
2019-05-01T03:49:49.192Z,10.50
2019-05-01T03:52:18.009Z,10.50
2019-05-01T03:54:46.886Z,10.40
2019-05-01T03:57:16.510Z,10.40
2019-05-01T03:59:46.275Z,10.30
2019-05-01T04:02:33.556Z,10.30
2019-05-01T04:04:56.552Z,10.30
2019-05-01T04:07:26.491Z,10.30
2019-05-01T04:09:56.085Z,10.20
2019-05-01T04:12:25.857Z,10.20
2019-05-01T04:14:55.540Z,10.20
2019-05-01T04:17:35.466Z,10.20
2019-05-01T04:20:05.310Z,10.10
2019-05-01T04:22:34.801Z,10.10
2019-05-01T04:25:04.292Z,10.10
2019-05-01T04:27:34.924Z,10.10
2019-05-01T04:30:05.971Z,10.00
2019-05-01T04:32:51.016Z,10.00
2019-05-01T04:35:20.334Z,10.00
2019-05-01T04:37:50.093Z,10.00
2019-05-01T04:40:20.270Z,10.00
2019-05-01T04:42:49.447Z,9.90
2019-05-01T04:45:19.124Z,9.80
2019-05-01T04:47:48.710Z,9.80
2019-05-01T04:50:17.800Z,9.80
2019-05-01T04:52:46.996Z,9.80
2019-05-01T04:55:17.053Z,9.80
2019-05-01T04:57:46.952Z,9.90
2019-05-01T05:00:16.456Z,10.00
2019-05-01T05:02:47.101Z,10.00
2019-05-01T05:05:16.703Z,10.10
2019-05-01T05:07:46.374Z,10.10
2019-05-01T05:10:15.551Z,10.20
2019-05-01T05:12:46.451Z,10.30
2019-05-01T05:15:20.013Z,10.40
2019-05-01T05:17:49.351Z,10.40
2019-05-01T05:20:18.719Z,10.40
2019-05-01T05:22:48.662Z,10.50
2019-05-01T05:25:17.783Z,10.60
2019-05-01T05:27:47.390Z,10.70
2019-05-01T05:30:16.682Z,10.80
2019-05-01T05:32:47.709Z,10.90
2019-05-01T05:35:18.719Z,11.00
2019-05-01T05:37:54.378Z,11.00
2019-05-01T05:40:24.161Z,11.10
2019-05-01T05:42:54.404Z,11.20
2019-05-01T05:45:23.824Z,11.20
2019-05-01T05:47:52.944Z,11.30
2019-05-01T05:50:23.947Z,11.30
2019-05-01T05:53:11.441Z,11.40
2019-05-01T05:55:45.363Z,11.50
2019-05-01T05:58:18.256Z,11.60
2019-05-01T06:00:53.934Z,11.50
2019-05-01T06:03:43.208Z,11.60
2019-05-01T06:06:16.917Z,11.60
2019-05-01T06:08:48.059Z,11.70
2019-05-01T06:11:33.817Z,11.70
2019-05-01T06:14:18.276Z,11.70
2019-05-01T06:16:55.486Z,11.70
2019-05-01T06:19:29.100Z,11.80
2019-05-01T06:22:16.831Z,11.80
2019-05-01T06:24:57.867Z,11.80
2019-05-01T06:27:27.755Z,11.80
2019-05-01T06:29:58.136Z,11.90
2019-05-01T06:32:28.790Z,11.90
2019-05-01T06:34:58.474Z,12.00
2019-05-01T06:38:00.207Z,12.10
2019-05-01T06:40:43.662Z,12.20
2019-05-01T06:43:25.225Z,12.30
2019-05-01T06:46:07.677Z,12.40
2019-05-01T06:48:38.555Z,12.50
2019-05-01T06:51:13.002Z,12.60
2019-05-01T06:53:41.313Z,12.70
2019-05-01T06:56:10.689Z,12.80
2019-05-01T06:58:39.693Z,13.00
2019-05-01T07:01:08.976Z,13.00
2019-05-01T07:03:40.851Z,13.10
2019-05-01T07:06:14.346Z,13.20
2019-05-01T07:08:39.744Z,13.40
2019-05-01T07:11:10.937Z,13.50
2019-05-01T07:13:41.517Z,13.60
2019-05-01T07:16:10.931Z,13.70
2019-05-01T07:18:40.090Z,13.90
2019-05-01T07:21:09.158Z,14.10
2019-05-01T07:23:38.642Z,14.30
2019-05-01T07:26:10.014Z,14.50
2019-05-01T07:28:40.142Z,14.60
2019-05-01T07:31:10.927Z,14.70
2019-05-01T07:33:40.140Z,14.70
2019-05-01T07:36:15.204Z,14.80
2019-05-01T07:38:44.299Z,14.80
2019-05-01T07:41:13.489Z,14.90
2019-05-01T07:43:44.891Z,15.10
2019-05-01T07:46:25.066Z,15.30
2019-05-01T07:48:54.386Z,15.30
2019-05-01T07:51:23.744Z,15.50
2019-05-01T07:53:53.192Z,15.70
2019-05-01T07:56:27.548Z,15.90
2019-05-01T07:58:53.908Z,16.10
2019-05-01T08:01:27.876Z,16.20
2019-05-01T08:03:57.251Z,16.40
2019-05-01T08:06:26.416Z,16.40
2019-05-01T08:08:55.612Z,16.50
2019-05-01T08:11:24.947Z,16.60
2019-05-01T08:14:06.590Z,16.80
2019-05-01T08:16:25.133Z,17.20
2019-05-01T08:19:05.895Z,17.90
2019-05-01T08:21:39.450Z,18.50
2019-05-01T08:24:08.830Z,18.90
2019-05-01T08:26:39.788Z,19.50
2019-05-01T08:29:19.153Z,19.80
2019-05-01T08:32:07.367Z,20.20
2019-05-01T08:34:48.475Z,20.70
2019-05-01T08:37:08.775Z,21.00
2019-05-01T08:39:39.606Z,21.30
2019-05-01T08:42:09.436Z,21.70
2019-05-01T08:44:59.928Z,21.90
2019-05-01T08:47:28.763Z,22.30
2019-05-01T08:49:59.223Z,22.70
2019-05-01T08:52:28.347Z,23.00
2019-05-01T08:54:57.610Z,23.00
2019-05-01T08:57:29.213Z,22.90
2019-05-01T09:00:00.265Z,23.20
2019-05-01T09:02:28.326Z,23.40
2019-05-01T09:05:02.618Z,23.80
2019-05-01T09:07:28.436Z,24.30
2019-05-01T09:09:57.352Z,24.40
2019-05-01T09:12:26.985Z,24.30
2019-05-01T09:14:56.231Z,24.30
2019-05-01T09:17:25.589Z,24.40
2019-05-01T09:19:54.783Z,24.70
2019-05-01T09:22:23.995Z,25.00
2019-05-01T09:24:54.459Z,25.50
2019-05-01T09:27:40.740Z,25.70
2019-05-01T09:30:28.694Z,25.60
2019-05-01T09:32:58.029Z,25.70
2019-05-01T09:35:27.214Z,25.80
2019-05-01T09:37:56.688Z,26.10
2019-05-01T09:40:25.796Z,26.10
2019-05-01T09:42:59.264Z,25.90
2019-05-01T09:45:26.362Z,25.80
2019-05-01T09:47:56.015Z,25.90
2019-05-01T09:50:25.838Z,26.30
2019-05-01T09:53:03.290Z,26.70
2019-05-01T09:55:49.237Z,26.70
2019-05-01T09:58:18.811Z,26.80
2019-05-01T10:00:48.740Z,26.80
2019-05-01T10:03:18.815Z,26.90
2019-05-01T10:05:47.845Z,27.20
2019-05-01T10:08:17.185Z,27.50
2019-05-01T10:10:46.422Z,27.70
2019-05-01T10:13:17.764Z,27.90
2019-05-01T10:15:46.446Z,28.20
2019-05-01T10:18:15.716Z,28.40
2019-05-01T10:20:44.975Z,28.70
2019-05-01T10:23:15.082Z,28.50
2019-05-01T10:25:47.928Z,28.40
2019-05-01T10:28:18.013Z,28.40
2019-05-01T10:30:49.054Z,28.20
2019-05-01T10:33:28.972Z,28.70
2019-05-01T10:36:03.967Z,28.80
2019-05-01T10:38:33.272Z,28.60
2019-05-01T10:41:04.163Z,28.80
2019-05-01T10:43:33.215Z,28.60
2019-05-01T10:46:02.687Z,28.40
2019-05-01T10:48:31.878Z,28.20
2019-05-01T10:51:01.424Z,27.90
2019-05-01T10:53:30.783Z,27.70
2019-05-01T10:55:59.810Z,27.60
2019-05-01T10:58:29.090Z,27.80
2019-05-01T11:00:59.882Z,28.30
2019-05-01T11:03:29.227Z,28.60
2019-05-01T11:05:58.476Z,28.70
2019-05-01T11:08:27.835Z,28.20
2019-05-01T11:10:57.310Z,27.90
2019-05-01T11:13:26.452Z,27.90
2019-05-01T11:15:55.751Z,27.90
2019-05-01T11:18:24.974Z,27.80
2019-05-01T11:20:54.247Z,27.80
2019-05-01T11:23:23.914Z,27.80
2019-05-01T11:25:53.323Z,27.60
2019-05-01T11:28:22.607Z,27.90
2019-05-01T11:30:51.866Z,28.10
2019-05-01T11:33:28.883Z,28.00
2019-05-01T11:36:11.986Z,28.10
2019-05-01T11:38:43.056Z,28.20
2019-05-01T11:41:14.048Z,28.40
2019-05-01T11:43:43.802Z,28.10
2019-05-01T11:46:13.103Z,27.80
2019-05-01T11:48:44.487Z,27.90
2019-05-01T11:51:12.707Z,28.00
2019-05-01T11:53:42.681Z,28.00
2019-05-01T11:56:12.781Z,27.40
2019-05-01T11:58:42.311Z,27.60
2019-05-01T12:01:13.088Z,28.00
2019-05-01T12:03:42.686Z,28.40
2019-05-01T12:06:22.342Z,28.60
2019-05-01T12:08:41.818Z,28.50
2019-05-01T12:11:12.363Z,28.40
2019-05-01T12:13:44.056Z,28.70
2019-05-01T12:16:14.436Z,28.40
2019-05-01T12:18:43.108Z,28.10
2019-05-01T12:21:12.591Z,28.30
2019-05-01T12:23:42.155Z,28.70
2019-05-01T12:26:11.705Z,29.40
2019-05-01T12:28:41.609Z,29.80
2019-05-01T12:31:10.960Z,29.60
2019-05-01T12:33:40.540Z,30.10
2019-05-01T12:36:09.952Z,30.30
2019-05-01T12:38:39.108Z,30.40
2019-05-01T12:41:26.357Z,30.60
2019-05-01T12:43:56.048Z,30.90
2019-05-01T12:46:45.072Z,31.00
2019-05-01T12:49:15.827Z,30.70
2019-05-01T12:51:46.877Z,30.60
2019-05-01T12:54:20.781Z,30.70
2019-05-01T12:57:01.124Z,30.90
2019-05-01T12:59:30.723Z,30.70
2019-05-01T13:02:00.026Z,30.70
2019-05-01T13:04:29.253Z,31.10
2019-05-01T13:06:59.480Z,31.50
2019-05-01T13:09:29.201Z,31.70
2019-05-01T13:11:58.805Z,31.60
2019-05-01T13:14:28.308Z,31.80
2019-05-01T13:16:57.567Z,30.10
2019-05-01T13:19:26.985Z,28.80
2019-05-01T13:21:56.360Z,28.10
2019-05-01T13:24:25.873Z,27.60
2019-05-01T13:27:15.040Z,28.70
2019-05-01T13:29:46.315Z,29.80
2019-05-01T13:32:26.745Z,30.90
2019-05-01T13:34:56.811Z,31.30
2019-05-01T13:37:26.075Z,31.50
2019-05-01T13:39:55.879Z,31.70
2019-05-01T13:42:25.453Z,31.60
2019-05-01T13:44:54.764Z,32.10
2019-05-01T13:47:24.072Z,32.20
2019-05-01T13:49:53.658Z,32.00
2019-05-01T13:52:23.652Z,32.30
2019-05-01T13:54:53.199Z,32.90
2019-05-01T13:57:22.644Z,33.40
2019-05-01T13:59:52.258Z,34.00
2019-05-01T14:02:21.742Z,34.20
2019-05-01T14:04:51.032Z,34.10
2019-05-01T14:07:20.497Z,33.80
2019-05-01T14:09:49.916Z,33.00
2019-05-01T14:12:19.131Z,32.10
2019-05-01T14:14:48.359Z,31.60
2019-05-01T14:17:17.758Z,30.60
2019-05-01T14:19:48.775Z,29.80
2019-05-01T14:22:19.827Z,28.90
2019-05-01T14:24:50.940Z,27.80
2019-05-01T14:27:20.578Z,27.50
2019-05-01T14:29:50.150Z,27.30
2019-05-01T14:32:19.499Z,28.10
2019-05-01T14:34:48.960Z,28.70
2019-05-01T14:37:29.114Z,28.00
2019-05-01T14:39:49.475Z,28.10
2019-05-01T14:42:19.492Z,28.00
2019-05-01T14:44:50.780Z,27.70
2019-05-01T14:47:20.412Z,27.30
2019-05-01T14:49:49.937Z,26.60
2019-05-01T14:52:19.141Z,26.70
2019-05-01T14:54:48.668Z,27.90
2019-05-01T14:57:18.180Z,28.30
2019-05-01T14:59:47.471Z,29.20
2019-05-01T15:02:17.180Z,30.10
2019-05-01T15:04:46.707Z,29.40
2019-05-01T15:07:16.025Z,27.90
2019-05-01T15:09:45.138Z,26.50
2019-05-01T15:12:14.374Z,25.50
2019-05-01T15:15:00.207Z,24.90
2019-05-01T15:17:30.797Z,24.60
2019-05-01T15:20:04.875Z,24.60
2019-05-01T15:22:34.189Z,24.30
2019-05-01T15:25:03.346Z,23.70
2019-05-01T15:27:32.567Z,23.30
2019-05-01T15:30:01.705Z,23.20
2019-05-01T15:32:30.827Z,22.90
2019-05-01T15:34:59.967Z,22.70
2019-05-01T15:37:29.212Z,22.40
2019-05-01T15:40:00.297Z,22.20
2019-05-01T15:42:31.459Z,22.10
2019-05-01T15:45:00.109Z,21.80
2019-05-01T15:47:29.330Z,21.60
2019-05-01T15:49:58.636Z,21.60
2019-05-01T15:52:27.871Z,22.00
2019-05-01T15:54:57.192Z,22.30
2019-05-01T15:57:26.589Z,22.50
2019-05-01T15:59:55.996Z,22.30
2019-05-01T16:02:25.330Z,22.10
2019-05-01T16:04:54.740Z,21.90
2019-05-01T16:07:24.455Z,21.80
2019-05-01T16:09:53.787Z,21.70
2019-05-01T16:12:30.804Z,21.60
2019-05-01T16:15:00.313Z,21.80
2019-05-01T16:17:29.824Z,22.00
2019-05-01T16:19:59.019Z,22.10
2019-05-01T16:22:28.615Z,22.10
2019-05-01T16:24:58.308Z,21.90
2019-05-01T16:27:27.785Z,22.00
2019-05-01T16:29:57.124Z,21.90
2019-05-01T16:32:26.413Z,21.80
2019-05-01T16:34:55.962Z,21.70
2019-05-01T16:37:25.240Z,21.50
2019-05-01T16:39:56.143Z,21.30
2019-05-01T16:42:26.748Z,21.30
2019-05-01T16:44:56.232Z,21.20
2019-05-01T16:47:25.780Z,21.10
2019-05-01T16:49:55.319Z,20.90
2019-05-01T16:52:26.564Z,20.70
2019-05-01T16:54:59.498Z,20.70
2019-05-01T16:57:26.651Z,20.50
2019-05-01T16:59:56.440Z,20.50
2019-05-01T17:02:33.450Z,20.40
2019-05-01T17:05:32.492Z,20.30
2019-05-01T17:08:15.497Z,20.20
2019-05-01T17:10:52.430Z,20.20
2019-05-01T17:13:21.845Z,20.00
2019-05-01T17:15:51.835Z,19.90
2019-05-01T17:18:21.246Z,19.80
2019-05-01T17:20:50.486Z,19.80
2019-05-01T17:23:20.015Z,19.70
2019-05-01T17:25:49.013Z,19.60
2019-05-01T17:28:18.347Z,19.60
2019-05-01T17:30:50.360Z,19.50
2019-05-01T17:33:20.756Z,19.40
2019-05-01T17:35:50.543Z,19.40
2019-05-01T17:38:20.221Z,19.40
2019-05-01T17:40:51.974Z,19.50
2019-05-01T17:43:20.461Z,19.50
2019-05-01T17:45:50.031Z,19.50
2019-05-01T17:48:19.416Z,19.50
2019-05-01T17:50:48.826Z,19.60
2019-05-01T17:53:18.393Z,19.60
2019-05-01T17:55:47.686Z,19.50
2019-05-01T17:58:16.903Z,19.50
2019-05-01T18:00:47.600Z,19.40
2019-05-01T18:03:21.497Z,19.30
2019-05-01T18:06:10.883Z,19.40
2019-05-01T18:08:40.377Z,19.40
2019-05-01T18:11:14.146Z,19.30
2019-05-01T18:13:41.078Z,19.30
2019-05-01T18:16:10.511Z,19.20
2019-05-01T18:18:40.224Z,19.20
2019-05-01T18:21:11.290Z,19.10
2019-05-01T18:24:01.404Z,19.00
2019-05-01T18:26:32.112Z,19.00
2019-05-01T18:29:15.732Z,18.90
2019-05-01T18:31:44.997Z,18.80
2019-05-01T18:34:14.620Z,18.70
2019-05-01T18:37:02.099Z,18.60
2019-05-01T18:39:33.087Z,18.40
2019-05-01T18:42:04.380Z,18.30
2019-05-01T18:44:34.053Z,18.30
2019-05-01T18:47:03.461Z,18.10
2019-05-01T18:49:33.207Z,18.10
2019-05-01T18:52:02.758Z,18.00
2019-05-01T18:54:35.132Z,17.90
2019-05-01T18:57:03.230Z,17.80
2019-05-01T18:59:33.067Z,17.80
2019-05-01T19:02:02.716Z,17.70
2019-05-01T19:04:32.473Z,17.70
2019-05-01T19:07:02.151Z,17.70
2019-05-01T19:09:31.584Z,17.60
2019-05-01T19:12:00.738Z,17.40
2019-05-01T19:14:30.868Z,17.30
2019-05-01T19:17:00.634Z,17.30
2019-05-01T19:19:29.600Z,17.20
2019-05-01T19:21:58.483Z,17.20
2019-05-01T19:24:27.291Z,17.20
2019-05-01T19:26:55.953Z,17.30
2019-05-01T19:29:26.860Z,17.20
2019-05-01T19:31:57.220Z,17.10
2019-05-01T19:34:25.888Z,17.10
2019-05-01T19:36:54.650Z,17.10
2019-05-01T19:39:23.424Z,17.10
2019-05-01T19:41:54.591Z,17.00
2019-05-01T19:44:22.730Z,16.80
2019-05-01T19:46:54.938Z,16.70
2019-05-01T19:49:24.734Z,16.60
2019-05-01T19:51:55.450Z,16.60
2019-05-01T19:54:28.097Z,16.60
2019-05-01T19:56:55.349Z,16.60
2019-05-01T19:59:24.203Z,16.50
2019-05-01T20:01:52.878Z,16.40
2019-05-01T20:04:22.023Z,16.40
2019-05-01T20:06:50.872Z,16.30
2019-05-01T20:09:20.144Z,16.20
2019-05-01T20:11:49.160Z,16.20
2019-05-01T20:14:18.086Z,16.00
2019-05-01T20:16:47.064Z,16.00
2019-05-01T20:19:15.894Z,15.90
2019-05-01T20:21:44.861Z,15.90
2019-05-01T20:24:13.898Z,16.00
2019-05-01T20:26:42.617Z,15.90
2019-05-01T20:29:11.473Z,15.80
2019-05-01T20:31:40.405Z,15.80
2019-05-01T20:34:11.966Z,15.70
2019-05-01T20:36:39.815Z,15.80
2019-05-01T20:39:08.790Z,15.80
2019-05-01T20:41:37.568Z,15.70
2019-05-01T20:44:06.477Z,15.70
2019-05-01T20:46:35.279Z,15.70
2019-05-01T20:49:06.509Z,15.80
2019-05-01T20:51:34.399Z,15.80
2019-05-01T20:54:03.608Z,15.70
2019-05-01T20:56:33.967Z,15.60
2019-05-01T20:59:04.939Z,15.60
2019-05-01T21:01:33.539Z,15.70
2019-05-01T21:04:03.885Z,15.70
2019-05-01T21:06:34.276Z,15.70
2019-05-01T21:09:08.174Z,15.70
2019-05-01T21:11:36.463Z,15.70
2019-05-01T21:14:19.861Z,15.50
2019-05-01T21:16:38.070Z,15.30
2019-05-01T21:19:06.200Z,15.20
2019-05-01T21:21:34.920Z,15.00
2019-05-01T21:24:04.026Z,14.90
2019-05-01T21:26:33.586Z,14.80
2019-05-01T21:29:04.087Z,14.70
2019-05-01T21:31:34.131Z,14.70
2019-05-01T21:34:04.252Z,14.60
2019-05-01T21:36:33.147Z,14.50
2019-05-01T21:39:01.932Z,14.50
2019-05-01T21:41:32.790Z,14.50
2019-05-01T21:44:03.050Z,14.60
2019-05-01T21:46:31.552Z,14.80
2019-05-01T21:49:00.236Z,14.80
2019-05-01T21:51:28.950Z,14.70
2019-05-01T21:53:57.916Z,14.60
2019-05-01T21:56:26.600Z,14.70
2019-05-01T21:58:59.531Z,14.60
2019-05-01T22:01:25.805Z,14.50
2019-05-01T22:03:57.106Z,14.50
2019-05-01T22:06:25.830Z,14.40
2019-05-01T22:08:54.910Z,14.40
2019-05-01T22:11:23.615Z,14.40
2019-05-01T22:13:55.091Z,14.40
2019-05-01T22:16:24.610Z,14.30
2019-05-01T22:19:06.876Z,14.30
2019-05-01T22:21:52.388Z,14.30
2019-05-01T22:24:39.234Z,14.20
2019-05-01T22:27:12.903Z,14.20
2019-05-01T22:29:43.233Z,14.10
2019-05-01T22:32:27.769Z,14.10
2019-05-01T22:35:03.621Z,14.00
2019-05-01T22:37:32.865Z,14.00
2019-05-01T22:40:04.393Z,14.00
2019-05-01T22:42:33.309Z,14.00
2019-05-01T22:45:02.072Z,14.10
2019-05-01T22:47:31.117Z,14.10
2019-05-01T22:49:59.967Z,14.10
2019-05-01T22:52:28.702Z,14.10
2019-05-01T22:54:57.898Z,14.10
2019-05-01T22:57:26.639Z,14.10
2019-05-01T22:59:55.521Z,14.10
2019-05-01T23:02:42.737Z,14.10
2019-05-01T23:05:11.842Z,14.20
2019-05-01T23:07:40.759Z,14.20
2019-05-01T23:10:10.071Z,14.20
2019-05-01T23:12:38.861Z,14.20
2019-05-01T23:15:12.359Z,14.20
2019-05-01T23:17:46.187Z,14.10
2019-05-01T23:20:16.394Z,14.10
2019-05-01T23:22:45.265Z,14.10
2019-05-01T23:25:14.740Z,14.10
2019-05-01T23:27:43.615Z,14.10
2019-05-01T23:30:16.375Z,14.20
2019-05-01T23:32:45.866Z,14.10
2019-05-01T23:35:14.881Z,14.10
2019-05-01T23:37:43.624Z,14.10
2019-05-01T23:40:15.474Z,14.00
2019-05-01T23:42:51.997Z,14.00
2019-05-01T23:45:14.452Z,14.00
2019-05-01T23:47:43.909Z,13.90
2019-05-01T23:50:13.761Z,13.90
2019-05-01T23:52:42.568Z,13.90
2019-05-01T23:55:11.525Z,13.90
2019-05-01T23:57:40.346Z,13.80
